Cropper, Kentucky
Current Conditions -  °F | °C
As of 9:53 AM on Wednesday 22 Oct 2014 (Local Time) from KFFT Reporting Station
Clear Clear  
Wind Chill: 45°   Ceiling: Unl
Heat Index: 48°   Visibility: 10mi
Dew Point: 39°   Wind: 7mph
Humidity: 71%   Direction: 20°NNE
Pressure: 30.27"   Gusts: NA
Location:  38.369°N, 85.0622°W
Report Text: KFFT 221353Z AUTO 02006KT 10SM CLR 09/04 A3027 RMK AO2 SLP251 T00890039
Loading
Personal Weather Stations






























Interactive Weather Map
Tropical Storm Tracking
New forecast layout! Learn more

10-Day Weather Forecast

Advertisements
Track Severe Weather on mobile